sensor_id;sensor_type;location;lat;lon;timestamp;temperature;humidity
85671;DHT22;76102;50.890;3.932;2024-03-07T00:00:11;5.40;82.10
85671;DHT22;76102;50.890;3.932;2024-03-07T00:02:50;5.30;82.20
85671;DHT22;76102;50.890;3.932;2024-03-07T00:05:17;5.20;83.60
85671;DHT22;76102;50.890;3.932;2024-03-07T00:07:45;5.10;84.30
85671;DHT22;76102;50.890;3.932;2024-03-07T00:10:13;5.20;84.70
85671;DHT22;76102;50.890;3.932;2024-03-07T00:12:41;5.20;84.30
85671;DHT22;76102;50.890;3.932;2024-03-07T00:15:10;5.20;84.70
85671;DHT22;76102;50.890;3.932;2024-03-07T00:17:39;5.20;83.80
85671;DHT22;76102;50.890;3.932;2024-03-07T00:20:08;5.20;84.30
85671;DHT22;76102;50.890;3.932;2024-03-07T00:22:38;5.10;83.90
85671;DHT22;76102;50.890;3.932;2024-03-07T00:25:04;5.10;84.00
85671;DHT22;76102;50.890;3.932;2024-03-07T00:27:36;5.20;84.10
85671;DHT22;76102;50.890;3.932;2024-03-07T00:30:03;5.20;83.60
85671;DHT22;76102;50.890;3.932;2024-03-07T00:32:31;5.20;83.60
85671;DHT22;76102;50.890;3.932;2024-03-07T00:35:01;5.20;83.30
85671;DHT22;76102;50.890;3.932;2024-03-07T00:37:29;5.20;83.30
85671;DHT22;76102;50.890;3.932;2024-03-07T00:40:03;5.10;83.60
85671;DHT22;76102;50.890;3.932;2024-03-07T00:42:34;5.10;83.60
85671;DHT22;76102;50.890;3.932;2024-03-07T00:44:59;5.20;83.60
85671;DHT22;76102;50.890;3.932;2024-03-07T00:47:25;5.20;82.80
85671;DHT22;76102;50.890;3.932;2024-03-07T00:49:53;5.20;82.20
85671;DHT22;76102;50.890;3.932;2024-03-07T00:52:21;5.10;82.50
85671;DHT22;76102;50.890;3.932;2024-03-07T00:54:47;5.10;83.10
85671;DHT22;76102;50.890;3.932;2024-03-07T00:57:12;5.00;83.30
85671;DHT22;76102;50.890;3.932;2024-03-07T00:59:40;5.10;83.00
85671;DHT22;76102;50.890;3.932;2024-03-07T01:02:08;4.90;83.40
85671;DHT22;76102;50.890;3.932;2024-03-07T01:04:34;4.80;84.60
85671;DHT22;76102;50.890;3.932;2024-03-07T01:07:05;4.80;84.40
85671;DHT22;76102;50.890;3.932;2024-03-07T01:09:30;4.80;84.40
85671;DHT22;76102;50.890;3.932;2024-03-07T01:11:56;4.80;84.60
85671;DHT22;76102;50.890;3.932;2024-03-07T01:14:22;4.70;85.00
85671;DHT22;76102;50.890;3.932;2024-03-07T01:16:50;4.70;85.00
85671;DHT22;76102;50.890;3.932;2024-03-07T01:19:19;4.70;84.70
85671;DHT22;76102;50.890;3.932;2024-03-07T01:21:47;4.80;84.40
85671;DHT22;76102;50.890;3.932;2024-03-07T01:24:18;4.80;83.90
85671;DHT22;76102;50.890;3.932;2024-03-07T01:26:53;4.90;84.20
85671;DHT22;76102;50.890;3.932;2024-03-07T01:29:18;4.80;84.60
85671;DHT22;76102;50.890;3.932;2024-03-07T01:31:46;4.70;85.10
85671;DHT22;76102;50.890;3.932;2024-03-07T01:34:16;4.70;85.80
85671;DHT22;76102;50.890;3.932;2024-03-07T01:36:42;4.70;86.30
85671;DHT22;76102;50.890;3.932;2024-03-07T01:39:10;4.70;86.20
85671;DHT22;76102;50.890;3.932;2024-03-07T01:41:36;4.70;86.10
85671;DHT22;76102;50.890;3.932;2024-03-07T01:44:04;4.70;86.00
85671;DHT22;76102;50.890;3.932;2024-03-07T01:46:34;4.70;86.00
85671;DHT22;76102;50.890;3.932;2024-03-07T01:49:00;4.70;86.30
85671;DHT22;76102;50.890;3.932;2024-03-07T01:51:26;4.80;85.60
85671;DHT22;76102;50.890;3.932;2024-03-07T01:53:52;4.70;85.40
85671;DHT22;76102;50.890;3.932;2024-03-07T01:56:19;4.80;85.50
85671;DHT22;76102;50.890;3.932;2024-03-07T01:58:52;4.80;84.80
85671;DHT22;76102;50.890;3.932;2024-03-07T02:01:21;4.70;85.50
85671;DHT22;76102;50.890;3.932;2024-03-07T02:03:47;4.70;85.50
85671;DHT22;76102;50.890;3.932;2024-03-07T02:06:15;4.60;85.70
85671;DHT22;76102;50.890;3.932;2024-03-07T02:08:41;4.50;86.50
85671;DHT22;76102;50.890;3.932;2024-03-07T02:11:07;4.40;87.70
85671;DHT22;76102;50.890;3.932;2024-03-07T02:13:37;4.60;87.40
85671;DHT22;76102;50.890;3.932;2024-03-07T02:16:07;4.70;87.10
85671;DHT22;76102;50.890;3.932;2024-03-07T02:18:35;4.70;87.00
85671;DHT22;76102;50.890;3.932;2024-03-07T02:21:11;4.60;87.10
85671;DHT22;76102;50.890;3.932;2024-03-07T02:23:39;4.60;86.90
85671;DHT22;76102;50.890;3.932;2024-03-07T02:26:06;4.50;87.30
85671;DHT22;76102;50.890;3.932;2024-03-07T02:28:36;4.50;87.80
85671;DHT22;76102;50.890;3.932;2024-03-07T02:31:04;4.40;88.10
85671;DHT22;76102;50.890;3.932;2024-03-07T02:33:32;4.40;88.00
85671;DHT22;76102;50.890;3.932;2024-03-07T02:35:58;4.60;88.20
85671;DHT22;76102;50.890;3.932;2024-03-07T02:38:26;4.60;88.00
85671;DHT22;76102;50.890;3.932;2024-03-07T02:40:54;4.60;87.90
85671;DHT22;76102;50.890;3.932;2024-03-07T02:43:25;4.60;88.00
85671;DHT22;76102;50.890;3.932;2024-03-07T02:45:50;4.60;88.40
85671;DHT22;76102;50.890;3.932;2024-03-07T02:48:16;4.60;88.50
85671;DHT22;76102;50.890;3.932;2024-03-07T02:50:44;4.70;88.30
85671;DHT22;76102;50.890;3.932;2024-03-07T02:53:09;4.50;87.10
85671;DHT22;76102;50.890;3.932;2024-03-07T02:55:35;4.50;85.20
85671;DHT22;76102;50.890;3.932;2024-03-07T02:58:01;4.30;87.70
85671;DHT22;76102;50.890;3.932;2024-03-07T03:00:26;4.30;89.20
85671;DHT22;76102;50.890;3.932;2024-03-07T03:02:55;4.30;89.20
85671;DHT22;76102;50.890;3.932;2024-03-07T03:05:23;4.30;89.20
85671;DHT22;76102;50.890;3.932;2024-03-07T03:07:50;4.20;89.20
85671;DHT22;76102;50.890;3.932;2024-03-07T03:10:24;4.20;89.40
85671;DHT22;76102;50.890;3.932;2024-03-07T03:12:58;4.20;89.80
85671;DHT22;76102;50.890;3.932;2024-03-07T03:15:24;4.30;89.80
85671;DHT22;76102;50.890;3.932;2024-03-07T03:17:50;4.30;90.00
85671;DHT22;76102;50.890;3.932;2024-03-07T03:20:18;4.30;89.90
85671;DHT22;76102;50.890;3.932;2024-03-07T03:22:59;4.30;89.60
85671;DHT22;76102;50.890;3.932;2024-03-07T03:25:25;4.30;89.70
85671;DHT22;76102;50.890;3.932;2024-03-07T03:27:56;4.30;90.10
85671;DHT22;76102;50.890;3.932;2024-03-07T03:30:24;4.30;89.70
85671;DHT22;76102;50.890;3.932;2024-03-07T03:32:49;4.30;90.10
85671;DHT22;76102;50.890;3.932;2024-03-07T03:35:17;4.30;90.10
85671;DHT22;76102;50.890;3.932;2024-03-07T03:37:46;4.40;90.00
85671;DHT22;76102;50.890;3.932;2024-03-07T03:40:12;4.40;89.70
85671;DHT22;76102;50.890;3.932;2024-03-07T03:42:42;4.50;89.20
85671;DHT22;76102;50.890;3.932;2024-03-07T03:45:09;4.40;89.50
85671;DHT22;76102;50.890;3.932;2024-03-07T03:47:40;4.30;89.90
85671;DHT22;76102;50.890;3.932;2024-03-07T03:50:08;4.30;90.00
85671;DHT22;76102;50.890;3.932;2024-03-07T03:52:37;4.30;90.00
85671;DHT22;76102;50.890;3.932;2024-03-07T03:55:08;4.20;90.20
85671;DHT22;76102;50.890;3.932;2024-03-07T03:57:35;4.30;90.20
85671;DHT22;76102;50.890;3.932;2024-03-07T04:00:02;4.30;90.10
85671;DHT22;76102;50.890;3.932;2024-03-07T04:02:36;4.20;90.40
85671;DHT22;76102;50.890;3.932;2024-03-07T04:05:08;4.20;90.80
85671;DHT22;76102;50.890;3.932;2024-03-07T04:07:35;4.10;90.90
85671;DHT22;76102;50.890;3.932;2024-03-07T04:10:01;4.10;91.10
85671;DHT22;76102;50.890;3.932;2024-03-07T04:12:29;4.10;91.20
85671;DHT22;76102;50.890;3.932;2024-03-07T04:14:55;4.10;91.50
85671;DHT22;76102;50.890;3.932;2024-03-07T04:17:23;4.20;91.50
85671;DHT22;76102;50.890;3.932;2024-03-07T04:19:49;4.30;91.40
85671;DHT22;76102;50.890;3.932;2024-03-07T04:22:17;4.30;91.90
85671;DHT22;76102;50.890;3.932;2024-03-07T04:24:45;4.30;92.00
85671;DHT22;76102;50.890;3.932;2024-03-07T04:27:11;4.40;91.90
85671;DHT22;76102;50.890;3.932;2024-03-07T04:29:37;4.50;91.90
85671;DHT22;76102;50.890;3.932;2024-03-07T04:32:05;4.40;91.80
85671;DHT22;76102;50.890;3.932;2024-03-07T04:34:31;4.30;91.60
85671;DHT22;76102;50.890;3.932;2024-03-07T04:37:00;4.30;91.90
85671;DHT22;76102;50.890;3.932;2024-03-07T04:39:34;4.30;91.90
85671;DHT22;76102;50.890;3.932;2024-03-07T04:42:01;4.30;92.20
85671;DHT22;76102;50.890;3.932;2024-03-07T04:44:28;4.40;91.80
85671;DHT22;76102;50.890;3.932;2024-03-07T04:46:54;4.50;91.50
85671;DHT22;76102;50.890;3.932;2024-03-07T04:49:27;4.40;91.40
85671;DHT22;76102;50.890;3.932;2024-03-07T04:51:58;4.40;91.90
85671;DHT22;76102;50.890;3.932;2024-03-07T04:54:27;4.50;92.00
85671;DHT22;76102;50.890;3.932;2024-03-07T04:56:53;4.30;91.80
85671;DHT22;76102;50.890;3.932;2024-03-07T04:59:22;4.40;92.60
85671;DHT22;76102;50.890;3.932;2024-03-07T05:01:50;4.40;92.20
85671;DHT22;76102;50.890;3.932;2024-03-07T05:04:21;4.40;92.20
85671;DHT22;76102;50.890;3.932;2024-03-07T05:06:49;4.30;92.10
85671;DHT22;76102;50.890;3.932;2024-03-07T05:09:19;4.20;92.10
85671;DHT22;76102;50.890;3.932;2024-03-07T05:12:04;4.30;92.00
85671;DHT22;76102;50.890;3.932;2024-03-07T05:14:30;4.20;92.10
85671;DHT22;76102;50.890;3.932;2024-03-07T05:16:56;4.20;92.40
85671;DHT22;76102;50.890;3.932;2024-03-07T05:19:33;4.30;92.70
85671;DHT22;76102;50.890;3.932;2024-03-07T05:21:59;4.30;92.30
85671;DHT22;76102;50.890;3.932;2024-03-07T05:24:27;4.20;92.50
85671;DHT22;76102;50.890;3.932;2024-03-07T05:26:53;4.40;92.50
85671;DHT22;76102;50.890;3.932;2024-03-07T05:29:22;4.50;91.90
85671;DHT22;76102;50.890;3.932;2024-03-07T05:31:47;4.40;91.80
85671;DHT22;76102;50.890;3.932;2024-03-07T05:34:14;4.30;92.20
85671;DHT22;76102;50.890;3.932;2024-03-07T05:36:41;4.20;92.50
85671;DHT22;76102;50.890;3.932;2024-03-07T05:39:16;4.30;92.60
85671;DHT22;76102;50.890;3.932;2024-03-07T05:41:45;4.30;92.50
85671;DHT22;76102;50.890;3.932;2024-03-07T05:44:11;4.30;92.40
85671;DHT22;76102;50.890;3.932;2024-03-07T05:46:40;4.30;92.30
85671;DHT22;76102;50.890;3.932;2024-03-07T05:49:15;4.30;92.20
85671;DHT22;76102;50.890;3.932;2024-03-07T05:51:47;4.10;92.30
85671;DHT22;76102;50.890;3.932;2024-03-07T05:54:12;4.10;92.40
85671;DHT22;76102;50.890;3.932;2024-03-07T05:56:39;4.20;92.40
85671;DHT22;76102;50.890;3.932;2024-03-07T05:59:08;4.30;92.70
85671;DHT22;76102;50.890;3.932;2024-03-07T06:01:37;4.30;92.40
85671;DHT22;76102;50.890;3.932;2024-03-07T06:04:06;4.30;92.30
85671;DHT22;76102;50.890;3.932;2024-03-07T06:06:36;4.30;92.40
85671;DHT22;76102;50.890;3.932;2024-03-07T06:09:04;4.40;92.60
85671;DHT22;76102;50.890;3.932;2024-03-07T06:11:39;4.30;92.60
85671;DHT22;76102;50.890;3.932;2024-03-07T06:14:08;4.20;93.10
85671;DHT22;76102;50.890;3.932;2024-03-07T06:16:36;4.40;93.30
85671;DHT22;76102;50.890;3.932;2024-03-07T06:19:05;4.40;93.00
85671;DHT22;76102;50.890;3.932;2024-03-07T06:21:35;4.40;93.10
85671;DHT22;76102;50.890;3.932;2024-03-07T06:24:04;4.40;93.10
85671;DHT22;76102;50.890;3.932;2024-03-07T06:26:32;4.40;93.10
85671;DHT22;76102;50.890;3.932;2024-03-07T06:29:25;4.40;93.40
85671;DHT22;76102;50.890;3.932;2024-03-07T06:31:52;4.40;93.30
85671;DHT22;76102;50.890;3.932;2024-03-07T06:34:24;4.40;93.30
85671;DHT22;76102;50.890;3.932;2024-03-07T06:36:50;4.30;93.50
85671;DHT22;76102;50.890;3.932;2024-03-07T06:39:18;4.40;93.50
85671;DHT22;76102;50.890;3.932;2024-03-07T06:41:49;4.30;93.50
85671;DHT22;76102;50.890;3.932;2024-03-07T06:44:15;4.40;93.50
85671;DHT22;76102;50.890;3.932;2024-03-07T06:46:42;4.30;93.60
85671;DHT22;76102;50.890;3.932;2024-03-07T06:49:11;4.40;93.80
85671;DHT22;76102;50.890;3.932;2024-03-07T06:51:39;4.40;93.60
85671;DHT22;76102;50.890;3.932;2024-03-07T06:54:04;4.40;93.50
85671;DHT22;76102;50.890;3.932;2024-03-07T06:56:30;4.40;93.70
85671;DHT22;76102;50.890;3.932;2024-03-07T06:58:59;4.40;93.90
85671;DHT22;76102;50.890;3.932;2024-03-07T07:01:28;4.40;94.00
85671;DHT22;76102;50.890;3.932;2024-03-07T07:03:57;4.50;93.80
85671;DHT22;76102;50.890;3.932;2024-03-07T07:06:24;4.50;93.60
85671;DHT22;76102;50.890;3.932;2024-03-07T07:08:51;4.50;93.60
85671;DHT22;76102;50.890;3.932;2024-03-07T07:11:19;4.50;93.70
85671;DHT22;76102;50.890;3.932;2024-03-07T07:13:47;4.40;93.70
85671;DHT22;76102;50.890;3.932;2024-03-07T07:16:17;4.50;93.80
85671;DHT22;76102;50.890;3.932;2024-03-07T07:18:47;4.50;93.70
85671;DHT22;76102;50.890;3.932;2024-03-07T07:21:15;4.60;93.60
85671;DHT22;76102;50.890;3.932;2024-03-07T07:23:41;4.70;93.20
85671;DHT22;76102;50.890;3.932;2024-03-07T07:26:07;4.70;93.20
85671;DHT22;76102;50.890;3.932;2024-03-07T07:28:34;4.60;93.40
85671;DHT22;76102;50.890;3.932;2024-03-07T07:31:01;4.60;93.20
85671;DHT22;76102;50.890;3.932;2024-03-07T07:33:29;4.70;93.40
85671;DHT22;76102;50.890;3.932;2024-03-07T07:35:57;4.80;93.10
85671;DHT22;76102;50.890;3.932;2024-03-07T07:38:24;4.90;93.10
85671;DHT22;76102;50.890;3.932;2024-03-07T07:40:51;4.90;92.80
85671;DHT22;76102;50.890;3.932;2024-03-07T07:43:17;5.00;92.50
85671;DHT22;76102;50.890;3.932;2024-03-07T07:45:47;5.10;92.20
85671;DHT22;76102;50.890;3.932;2024-03-07T07:48:15;4.90;92.50
85671;DHT22;76102;50.890;3.932;2024-03-07T07:50:42;4.90;92.30
85671;DHT22;76102;50.890;3.932;2024-03-07T07:53:07;4.90;92.70
85671;DHT22;76102;50.890;3.932;2024-03-07T07:55:34;4.80;92.70
85671;DHT22;76102;50.890;3.932;2024-03-07T07:58:05;4.90;92.80
85671;DHT22;76102;50.890;3.932;2024-03-07T08:00:33;5.10;92.90
85671;DHT22;76102;50.890;3.932;2024-03-07T08:03:02;5.10;92.80
85671;DHT22;76102;50.890;3.932;2024-03-07T08:05:29;5.10;92.80
85671;DHT22;76102;50.890;3.932;2024-03-07T08:07:57;5.00;92.80
85671;DHT22;76102;50.890;3.932;2024-03-07T08:10:30;5.00;92.80
85671;DHT22;76102;50.890;3.932;2024-03-07T08:12:56;5.20;92.80
85671;DHT22;76102;50.890;3.932;2024-03-07T08:15:28;5.30;92.20
85671;DHT22;76102;50.890;3.932;2024-03-07T08:17:55;5.20;92.00
85671;DHT22;76102;50.890;3.932;2024-03-07T08:20:24;5.30;92.20
85671;DHT22;76102;50.890;3.932;2024-03-07T08:22:52;5.30;92.10
85671;DHT22;76102;50.890;3.932;2024-03-07T08:25:25;5.20;92.10
85671;DHT22;76102;50.890;3.932;2024-03-07T08:27:57;5.20;91.50
85671;DHT22;76102;50.890;3.932;2024-03-07T08:30:24;5.30;91.60
85671;DHT22;76102;50.890;3.932;2024-03-07T08:32:51;5.30;91.80
85671;DHT22;76102;50.890;3.932;2024-03-07T08:35:18;5.30;92.20
85671;DHT22;76102;50.890;3.932;2024-03-07T08:37:46;5.50;92.40
85671;DHT22;76102;50.890;3.932;2024-03-07T08:40:17;5.60;91.70
85671;DHT22;76102;50.890;3.932;2024-03-07T08:42:53;5.70;91.80
85671;DHT22;76102;50.890;3.932;2024-03-07T08:45:22;5.90;90.90
85671;DHT22;76102;50.890;3.932;2024-03-07T08:47:51;5.70;90.60
85671;DHT22;76102;50.890;3.932;2024-03-07T08:50:17;5.60;90.80
85671;DHT22;76102;50.890;3.932;2024-03-07T08:52:44;5.70;91.00
85671;DHT22;76102;50.890;3.932;2024-03-07T08:55:12;5.80;90.70
85671;DHT22;76102;50.890;3.932;2024-03-07T08:57:40;5.80;90.30
85671;DHT22;76102;50.890;3.932;2024-03-07T09:00:07;6.00;90.20
85671;DHT22;76102;50.890;3.932;2024-03-07T09:02:42;6.40;88.80
85671;DHT22;76102;50.890;3.932;2024-03-07T09:05:08;6.70;88.00
85671;DHT22;76102;50.890;3.932;2024-03-07T09:07:38;7.20;85.60
85671;DHT22;76102;50.890;3.932;2024-03-07T09:10:04;7.40;85.10
85671;DHT22;76102;50.890;3.932;2024-03-07T09:12:34;7.20;84.70
85671;DHT22;76102;50.890;3.932;2024-03-07T09:15:05;6.80;85.70
85671;DHT22;76102;50.890;3.932;2024-03-07T09:17:30;7.10;85.70
85671;DHT22;76102;50.890;3.932;2024-03-07T09:19:59;8.20;82.30
85671;DHT22;76102;50.890;3.932;2024-03-07T09:22:27;8.30;79.80
85671;DHT22;76102;50.890;3.932;2024-03-07T09:24:59;8.10;79.70
85671;DHT22;76102;50.890;3.932;2024-03-07T09:27:26;7.40;80.80
85671;DHT22;76102;50.890;3.932;2024-03-07T09:29:52;7.10;83.30
85671;DHT22;76102;50.890;3.932;2024-03-07T09:32:18;7.70;81.70
85671;DHT22;76102;50.890;3.932;2024-03-07T09:34:47;8.30;79.80
85671;DHT22;76102;50.890;3.932;2024-03-07T09:37:15;8.60;77.40
85671;DHT22;76102;50.890;3.932;2024-03-07T09:39:43;8.40;77.50
85671;DHT22;76102;50.890;3.932;2024-03-07T09:42:11;8.10;78.90
85671;DHT22;76102;50.890;3.932;2024-03-07T09:44:42;7.70;79.80
85671;DHT22;76102;50.890;3.932;2024-03-07T09:47:09;7.50;81.20
85671;DHT22;76102;50.890;3.932;2024-03-07T09:49:36;7.80;81.10
85671;DHT22;76102;50.890;3.932;2024-03-07T09:52:12;8.30;78.20
85671;DHT22;76102;50.890;3.932;2024-03-07T09:54:39;8.50;76.30
85671;DHT22;76102;50.890;3.932;2024-03-07T09:57:11;8.50;75.80
85671;DHT22;76102;50.890;3.932;2024-03-07T09:59:38;8.80;75.50
85671;DHT22;76102;50.890;3.932;2024-03-07T10:02:06;9.50;73.40
85671;DHT22;76102;50.890;3.932;2024-03-07T10:07:09;9.50;73.40
85671;DHT22;76102;50.890;3.932;2024-03-07T10:09:39;9.80;70.90
85671;DHT22;76102;50.890;3.932;2024-03-07T10:12:07;9.70;72.40
85671;DHT22;76102;50.890;3.932;2024-03-07T10:15:02;9.90;73.10
85671;DHT22;76102;50.890;3.932;2024-03-07T10:17:24;10.10;70.90
85671;DHT22;76102;50.890;3.932;2024-03-07T10:19:52;9.20;75.10
85671;DHT22;76102;50.890;3.932;2024-03-07T10:22:22;9.70;73.40
85671;DHT22;76102;50.890;3.932;2024-03-07T10:24:55;9.90;71.90
85671;DHT22;76102;50.890;3.932;2024-03-07T10:27:25;10.30;69.70
85671;DHT22;76102;50.890;3.932;2024-03-07T10:29:54;10.70;69.10
85671;DHT22;76102;50.890;3.932;2024-03-07T10:32:22;10.20;69.50
85671;DHT22;76102;50.890;3.932;2024-03-07T10:34:50;10.50;71.10
85671;DHT22;76102;50.890;3.932;2024-03-07T10:37:21;10.60;67.60
85671;DHT22;76102;50.890;3.932;2024-03-07T10:39:47;10.40;69.90
85671;DHT22;76102;50.890;3.932;2024-03-07T10:42:19;9.90;70.70
85671;DHT22;76102;50.890;3.932;2024-03-07T10:44:48;9.50;72.50
85671;DHT22;76102;50.890;3.932;2024-03-07T10:47:18;9.50;73.10
85671;DHT22;76102;50.890;3.932;2024-03-07T10:55:34;9.20;73.60
85671;DHT22;76102;50.890;3.932;2024-03-07T11:00:59;9.20;73.30
85671;DHT22;76102;50.890;3.932;2024-03-07T11:03:26;9.00;74.10
85671;DHT22;76102;50.890;3.932;2024-03-07T11:05:52;9.30;75.10
85671;DHT22;76102;50.890;3.932;2024-03-07T11:08:19;9.70;74.60
85671;DHT22;76102;50.890;3.932;2024-03-07T11:10:45;9.70;72.20
85671;DHT22;76102;50.890;3.932;2024-03-07T11:13:13;9.70;72.90
85671;DHT22;76102;50.890;3.932;2024-03-07T11:15:46;9.80;72.40
85671;DHT22;76102;50.890;3.932;2024-03-07T11:18:14;10.00;73.00
85671;DHT22;76102;50.890;3.932;2024-03-07T11:20:41;10.10;71.00
85671;DHT22;76102;50.890;3.932;2024-03-07T11:23:27;10.10;69.70
85671;DHT22;76102;50.890;3.932;2024-03-07T11:26:08;9.90;70.50
85671;DHT22;76102;50.890;3.932;2024-03-07T11:28:40;9.90;70.30
85671;DHT22;76102;50.890;3.932;2024-03-07T11:31:26;10.10;70.30
85671;DHT22;76102;50.890;3.932;2024-03-07T11:36:48;10.10;70.80
85671;DHT22;76102;50.890;3.932;2024-03-07T11:42:09;10.20;69.60
85671;DHT22;76102;50.890;3.932;2024-03-07T11:44:35;10.30;68.00
85671;DHT22;76102;50.890;3.932;2024-03-07T11:47:03;10.20;69.60
85671;DHT22;76102;50.890;3.932;2024-03-07T11:49:37;10.10;68.80
85671;DHT22;76102;50.890;3.932;2024-03-07T11:52:05;10.20;68.10
85671;DHT22;76102;50.890;3.932;2024-03-07T11:54:40;10.30;67.80
85671;DHT22;76102;50.890;3.932;2024-03-07T11:57:18;10.40;68.80
85671;DHT22;76102;50.890;3.932;2024-03-07T11:59:58;10.70;68.30
85671;DHT22;76102;50.890;3.932;2024-03-07T12:02:27;10.90;67.10
85671;DHT22;76102;50.890;3.932;2024-03-07T12:04:53;10.80;67.60
85671;DHT22;76102;50.890;3.932;2024-03-07T12:07:21;10.70;66.70
85671;DHT22;76102;50.890;3.932;2024-03-07T12:09:50;10.70;67.60
85671;DHT22;76102;50.890;3.932;2024-03-07T12:12:17;10.30;67.40
85671;DHT22;76102;50.890;3.932;2024-03-07T12:14:43;10.30;67.50
85671;DHT22;76102;50.890;3.932;2024-03-07T12:17:09;10.30;68.00
85671;DHT22;76102;50.890;3.932;2024-03-07T12:19:37;10.40;67.10
85671;DHT22;76102;50.890;3.932;2024-03-07T12:22:08;10.20;68.00
85671;DHT22;76102;50.890;3.932;2024-03-07T12:24:41;10.40;67.10
85671;DHT22;76102;50.890;3.932;2024-03-07T12:27:14;10.40;66.80
85671;DHT22;76102;50.890;3.932;2024-03-07T12:29:42;10.40;65.30
85671;DHT22;76102;50.890;3.932;2024-03-07T12:32:11;10.30;65.60
85671;DHT22;76102;50.890;3.932;2024-03-07T12:34:42;10.40;66.00
85671;DHT22;76102;50.890;3.932;2024-03-07T12:37:10;10.40;65.90
85671;DHT22;76102;50.890;3.932;2024-03-07T12:39:36;10.70;65.10
85671;DHT22;76102;50.890;3.932;2024-03-07T12:42:14;10.80;64.60
85671;DHT22;76102;50.890;3.932;2024-03-07T12:44:43;11.30;64.90
85671;DHT22;76102;50.890;3.932;2024-03-07T12:47:15;11.50;64.10
85671;DHT22;76102;50.890;3.932;2024-03-07T12:49:46;11.90;61.70
85671;DHT22;76102;50.890;3.932;2024-03-07T12:52:15;12.00;61.60
85671;DHT22;76102;50.890;3.932;2024-03-07T12:54:45;11.90;61.70
85671;DHT22;76102;50.890;3.932;2024-03-07T12:57:15;11.40;61.90
85671;DHT22;76102;50.890;3.932;2024-03-07T12:59:43;11.00;61.90
85671;DHT22;76102;50.890;3.932;2024-03-07T13:02:12;10.80;63.30
85671;DHT22;76102;50.890;3.932;2024-03-07T13:04:38;10.60;64.00
85671;DHT22;76102;50.890;3.932;2024-03-07T13:07:07;10.80;64.40
85671;DHT22;76102;50.890;3.932;2024-03-07T13:09:34;10.80;63.30
85671;DHT22;76102;50.890;3.932;2024-03-07T13:12:03;10.70;63.10
85671;DHT22;76102;50.890;3.932;2024-03-07T13:14:35;10.70;63.30
85671;DHT22;76102;50.890;3.932;2024-03-07T13:17:03;10.60;64.00
85671;DHT22;76102;50.890;3.932;2024-03-07T13:19:30;10.70;63.90
85671;DHT22;76102;50.890;3.932;2024-03-07T13:22:01;10.90;63.40
85671;DHT22;76102;50.890;3.932;2024-03-07T13:24:29;11.30;62.50
85671;DHT22;76102;50.890;3.932;2024-03-07T13:26:55;11.40;62.90
85671;DHT22;76102;50.890;3.932;2024-03-07T13:29:24;11.20;62.50
85671;DHT22;76102;50.890;3.932;2024-03-07T13:31:56;11.20;62.70
85671;DHT22;76102;50.890;3.932;2024-03-07T13:34:21;11.20;61.50
85671;DHT22;76102;50.890;3.932;2024-03-07T13:36:50;11.00;62.20
85671;DHT22;76102;50.890;3.932;2024-03-07T13:39:16;10.70;62.50
85671;DHT22;76102;50.890;3.932;2024-03-07T13:41:42;10.60;62.40
85671;DHT22;76102;50.890;3.932;2024-03-07T13:44:16;10.70;63.00
85671;DHT22;76102;50.890;3.932;2024-03-07T13:46:44;10.60;62.30
85671;DHT22;76102;50.890;3.932;2024-03-07T13:49:14;10.60;62.70
85671;DHT22;76102;50.890;3.932;2024-03-07T13:51:45;10.70;62.50
85671;DHT22;76102;50.890;3.932;2024-03-07T13:54:21;10.70;63.40
85671;DHT22;76102;50.890;3.932;2024-03-07T13:57:15;10.80;62.80
85671;DHT22;76102;50.890;3.932;2024-03-07T14:17:37;10.90;60.80
85671;DHT22;76102;50.890;3.932;2024-03-07T14:30:58;11.00;60.80
85671;DHT22;76102;50.890;3.932;2024-03-07T14:33:29;11.30;60.10
85671;DHT22;76102;50.890;3.932;2024-03-07T14:36:11;11.20;60.00
85671;DHT22;76102;50.890;3.932;2024-03-07T14:38:54;11.00;61.00
85671;DHT22;76102;50.890;3.932;2024-03-07T14:41:49;10.80;61.10
85671;DHT22;76102;50.890;3.932;2024-03-07T14:44:17;10.80;61.60
85671;DHT22;76102;50.890;3.932;2024-03-07T14:46:44;10.80;62.10
85671;DHT22;76102;50.890;3.932;2024-03-07T14:49:16;10.90;62.50
85671;DHT22;76102;50.890;3.932;2024-03-07T14:51:48;10.90;62.00
85671;DHT22;76102;50.890;3.932;2024-03-07T14:54:16;10.60;60.70
85671;DHT22;76102;50.890;3.932;2024-03-07T14:56:44;10.70;60.50
85671;DHT22;76102;50.890;3.932;2024-03-07T14:59:10;10.60;59.80
85671;DHT22;76102;50.890;3.932;2024-03-07T15:01:38;10.50;60.50
85671;DHT22;76102;50.890;3.932;2024-03-07T15:04:04;10.30;60.80
85671;DHT22;76102;50.890;3.932;2024-03-07T15:06:33;10.50;60.50
85671;DHT22;76102;50.890;3.932;2024-03-07T15:09:02;10.60;60.60
85671;DHT22;76102;50.890;3.932;2024-03-07T15:11:36;10.70;61.60
85671;DHT22;76102;50.890;3.932;2024-03-07T15:14:08;10.70;59.90
85671;DHT22;76102;50.890;3.932;2024-03-07T15:16:35;10.40;61.10
85671;DHT22;76102;50.890;3.932;2024-03-07T15:19:06;10.50;60.00
85671;DHT22;76102;50.890;3.932;2024-03-07T15:21:35;10.50;60.20
85671;DHT22;76102;50.890;3.932;2024-03-07T15:24:01;10.60;60.20
85671;DHT22;76102;50.890;3.932;2024-03-07T15:26:27;10.70;60.40
85671;DHT22;76102;50.890;3.932;2024-03-07T15:28:53;10.70;59.40
85671;DHT22;76102;50.890;3.932;2024-03-07T15:31:25;10.50;58.80
85671;DHT22;76102;50.890;3.932;2024-03-07T15:33:53;10.50;59.70
85671;DHT22;76102;50.890;3.932;2024-03-07T15:36:19;10.60;59.20
85671;DHT22;76102;50.890;3.932;2024-03-07T15:38:49;10.70;59.00
85671;DHT22;76102;50.890;3.932;2024-03-07T15:41:15;10.70;57.50
85671;DHT22;76102;50.890;3.932;2024-03-07T15:43:41;10.50;57.90
85671;DHT22;76102;50.890;3.932;2024-03-07T15:46:14;10.40;58.00
85671;DHT22;76102;50.890;3.932;2024-03-07T15:48:45;10.40;57.40
85671;DHT22;76102;50.890;3.932;2024-03-07T15:51:15;10.30;58.20
85671;DHT22;76102;50.890;3.932;2024-03-07T15:53:44;10.30;58.80
85671;DHT22;76102;50.890;3.932;2024-03-07T15:56:12;10.30;58.40
85671;DHT22;76102;50.890;3.932;2024-03-07T15:58:41;10.20;59.40
85671;DHT22;76102;50.890;3.932;2024-03-07T16:01:07;10.40;59.20
85671;DHT22;76102;50.890;3.932;2024-03-07T16:03:39;10.30;58.20
85671;DHT22;76102;50.890;3.932;2024-03-07T16:06:11;10.20;58.70
85671;DHT22;76102;50.890;3.932;2024-03-07T16:08:37;10.20;57.90
85671;DHT22;76102;50.890;3.932;2024-03-07T16:11:04;10.10;57.80
85671;DHT22;76102;50.890;3.932;2024-03-07T16:13:32;10.10;58.70
85671;DHT22;76102;50.890;3.932;2024-03-07T16:15:58;10.20;58.30
85671;DHT22;76102;50.890;3.932;2024-03-07T16:18:27;10.10;57.90
85671;DHT22;76102;50.890;3.932;2024-03-07T16:20:53;10.10;57.90
85671;DHT22;76102;50.890;3.932;2024-03-07T16:23:21;10.00;58.10
85671;DHT22;76102;50.890;3.932;2024-03-07T16:25:46;10.00;59.30
85671;DHT22;76102;50.890;3.932;2024-03-07T16:28:15;10.10;58.40
85671;DHT22;76102;50.890;3.932;2024-03-07T16:30:46;9.80;59.00
85671;DHT22;76102;50.890;3.932;2024-03-07T16:33:14;9.90;59.10
85671;DHT22;76102;50.890;3.932;2024-03-07T16:35:45;9.80;57.80
85671;DHT22;76102;50.890;3.932;2024-03-07T16:38:15;9.70;58.80